Hlavní strana
METAR-TAF:

METAR-TAF

Letiště :

Charbin, Čína

Mezinárodní letiště Charbin Tchaj-pching

zeměpisná šířka: 45-45N, zeměpisná délka: 126-46E, výška: 143 m

Aktuální stav počasí

Zpráva byla vytvořena před 22 minutami, v 07:00 UTC
Západoseverozápadní vítr 14 kt, proměnlivý mezi západojihozápadním a severoseverozápadním
Teplota -16°C
Vlhkost vzduchu 38%
Tlak 1022 hPa
Viditelnost 10 km a více
Žádná oblačnost pod 1500 m, nevyskytují se cumulonimby.

METAR: ZYHB 200700Z 29007MPS 250V340 CAVOK M16/M27 Q1022 NOSIG

Čas: 15:22 (07:22 UTC)

Předpověď počasí

Zpráva byla vytvořena před 4 hodinami a 19 minutami, v 03:03 UTC
Předpověď platná od 20 v 06 UTC do 21 v 06 UTC
Západní vítr 10 kt s nárazy do 19 kt
Viditelnost: 6000 m
Polojasno ve výšce 3000 ft

TAF: ZYHB 200303Z 2006/2106 26005G10MPS 6000 SCT030 TXM15/06Z TNM28/21Z

Stav a předpovědi počasí z více než 4 000 letišť (zprávy METAR a TAF).

Červené a žluté tečky na mapě představují dostupné meteorologické stanice.

Když kurzor umístíte na tečku, zobrazí se název stanice.

Pak kliknutím zobrazíte stav a předpověď počasí.

Chcete-li změnit mapu, kliknutím na zelené tlačítko se znaménkem +mapu přiblížíte, kliknutím na zelené tlačítko se znaménkem – mapu oddálíte a kliknutím na zelené šipky přejdete na sousední mapy.


METAR-TAF: